Time;durP1;ratioP1;P1;durP2;ratioP2;P2;SDS_P1;SDS_P2;PMS_P1;PMS_P2;Temp;Humidity;BMP_temperature;BMP_pressure;BME280_temperature;BME280_humidity;BME280_pressure;Samples;Min_cycle;Max_cycle;Signal;HPM_P1;HPM_P2
2022/08/05 00:02:23;;;;;;;7.65;3.45;;;;;;;19.15;100.00;101408.72;5111918;28;20576;-53
2022/08/05 00:04:51;;;;;;;7.45;3.10;;;;;;;19.19;100.00;101396.78;5112327;28;20101;-62
2022/08/05 00:07:23;;;;;;;6.90;3.13;;;;;;;19.17;100.00;101385.44;5110282;28;20525;-61
2022/08/05 00:10:11;;;;;;;7.78;3.10;;;;;;;18.97;100.00;101381.97;5113365;28;20050;-55
2022/08/05 00:12:41;;;;;;;7.95;3.42;;;;;;;18.96;100.00;101398.94;5111364;28;20570;-54
2022/08/05 00:15:24;;;;;;;9.00;3.67;;;;;;;19.02;100.00;101406.38;5111982;28;20067;-54
2022/08/05 00:18:14;;;;;;;8.90;3.20;;;;;;;19.07;100.00;101406.78;5113254;28;20066;-62
2022/08/05 00:20:49;;;;;;;8.10;3.58;;;;;;;19.11;100.00;101401.19;5112643;28;20056;-54
2022/08/05 00:23:17;;;;;;;10.15;4.15;;;;;;;18.96;100.00;101398.94;5112534;28;20574;-62
2022/08/05 00:26:06;;;;;;;7.55;3.45;;;;;;;19.00;100.00;101392.34;5111462;28;20039;-62
2022/08/05 00:28:35;;;;;;;8.75;3.47;;;;;;;19.05;100.00;101391.94;5112919;28;20472;-61
2022/08/05 00:31:03;;;;;;;11.30;4.30;;;;;;;18.86;100.00;101384.75;5112234;28;20066;-62
2022/08/05 00:33:36;;;;;;;10.77;3.90;;;;;;;18.85;100.00;101391.88;5113810;28;20035;-62
2022/08/05 00:36:24;;;;;;;7.43;4.22;;;;;;;18.83;100.00;101390.34;5113410;28;20047;-53
2022/08/05 00:39:12;;;;;;;7.10;3.78;;;;;;;18.84;100.00;101387.56;5113088;28;20097;-62
2022/08/05 00:41:46;;;;;;;12.07;3.97;;;;;;;18.77;100.00;101383.75;5110495;28;20044;-52
2022/08/05 00:44:23;;;;;;;9.60;3.80;;;;;;;18.68;100.00;101379.28;5110206;28;20146;-62
2022/08/05 00:46:58;;;;;;;6.75;3.70;;;;;;;18.60;100.00;101372.00;5113322;28;20047;-57
2022/08/05 00:49:34;;;;;;;8.30;3.42;;;;;;;18.56;100.00;101365.28;5113311;28;20375;-61
2022/08/05 00:52:18;;;;;;;10.50;4.25;;;;;;;18.51;100.00;101368.34;5113424;28;20043;-60
2022/08/05 00:54:55;;;;;;;8.98;3.85;;;;;;;18.55;100.00;101368.91;5113615;28;20478;-60
2022/08/05 00:57:25;;;;;;;9.23;3.92;;;;;;;18.52;100.00;101375.34;5113460;28;20534;-61
2022/08/05 01:00:06;;;;;;;8.23;3.72;;;;;;;18.55;100.00;101379.56;5113107;28;20444;-61
2022/08/05 01:02:40;;;;;;;8.55;3.47;;;;;;;18.51;100.00;101386.16;5111222;28;20040;-60
2022/08/05 01:05:11;;;;;;;8.23;3.67;;;;;;;18.54;100.00;101394.72;5110362;28;20528;-59
2022/08/05 01:07:41;;;;;;;9.93;4.25;;;;;;;18.50;100.00;101392.44;5113044;28;20039;-54
2022/08/05 01:10:35;;;;;;;8.80;3.92;;;;;;;18.63;100.00;101395.69;5113088;28;20048;-53
2022/08/05 01:13:10;;;;;;;11.85;3.88;;;;;;;18.66;100.00;101391.91;5113027;28;20095;-60
2022/08/05 01:15:53;;;;;;;12.95;4.72;;;;;;;18.50;100.00;101389.78;5110504;28;20047;-60
2022/08/05 01:18:24;;;;;;;8.57;3.70;;;;;;;18.47;100.00;101377.59;5111523;28;20089;-53
2022/08/05 01:21:01;;;;;;;;;;;;;;;18.53;100.00;101381.53;5113015;28;20066;-53
2022/08/05 01:23:41;;;;;;;9.63;3.95;;;;;;;18.50;100.00;101372.00;5112368;28;19924;-54
2022/08/05 01:26:29;;;;;;;14.15;4.90;;;;;;;18.43;100.00;101384.16;5112539;28;20047;-54
2022/08/05 01:29:03;;;;;;;12.38;5.40;;;;;;;18.41;100.00;101392.28;5110648;28;20521;-56
2022/08/05 01:31:37;;;;;;;8.68;4.50;;;;;;;18.40;100.00;101392.44;5108986;28;20788;-55
2022/08/05 01:34:16;;;;;;;8.75;4.15;;;;;;;18.40;100.00;101395.94;5112836;28;20108;-61
2022/08/05 01:36:46;;;;;;;;;;;;;;;18.42;100.00;101404.63;5113110;28;20074;-61
2022/08/05 01:39:16;;;;;;;10.73;4.55;;;;;;;18.38;100.00;101408.56;5112423;28;19934;-54
2022/08/05 01:42:06;;;;;;;9.48;4.10;;;;;;;18.41;100.00;101410.94;5112149;28;20044;-58
2022/08/05 01:44:39;;;;;;;7.95;3.78;;;;;;;18.44;100.00;101411.66;5110974;28;20154;-61
2022/08/05 01:47:10;;;;;;;9.05;4.20;;;;;;;18.53;100.00;101409.00;5112214;28;20067;-62
2022/08/05 01:49:40;;;;;;;8.33;4.10;;;;;;;18.51;100.00;101410.13;5112294;28;20067;-55
2022/08/05 01:52:30;;;;;;;10.10;4.63;;;;;;;18.38;100.00;101400.56;5112034;28;20491;-62
2022/08/05 01:55:02;;;;;;;9.68;4.40;;;;;;;18.37;100.00;101409.53;5112288;28;20410;-54
2022/08/05 01:57:35;;;;;;;8.00;4.13;;;;;;;18.46;100.00;101413.19;5112356;28;20093;-54
2022/08/05 02:00:26;;;;;;;8.27;4.40;;;;;;;18.49;100.00;101430.72;5110056;28;20071;-62
2022/08/05 02:03:01;;;;;;;8.63;4.57;;;;;;;18.36;100.00;101437.13;5110464;28;20044;-62
2022/08/05 02:05:34;;;;;;;11.98;4.88;;;;;;;18.39;100.00;101420.91;5111106;28;20051;-56
2022/08/05 02:08:03;;;;;;;;;;;;;;;18.48;100.00;101416.56;5108132;28;20048;-52
2022/08/05 02:10:37;;;;;;;11.05;4.72;;;;;;;18.34;100.00;101420.47;5110881;28;20370;-61
2022/08/05 02:13:12;;;;;;;9.73;4.65;;;;;;;18.39;100.00;101423.56;5112341;28;20036;-61
2022/08/05 02:15:49;;;;;;;10.70;4.40;;;;;;;18.44;100.00;101424.97;5110268;28;20060;-61
2022/08/05 02:18:30;;;;;;;11.30;4.50;;;;;;;18.37;100.00;101438.81;5109351;28;20573;-61
2022/08/05 02:21:08;;;;;;;12.32;4.55;;;;;;;18.49;100.00;101449.38;5111359;28;20047;-62
2022/08/05 02:23:47;;;;;;;10.27;4.97;;;;;;;18.48;100.00;101451.16;5111755;28;20122;-55
2022/08/05 02:26:20;;;;;;;10.85;4.18;;;;;;;18.45;100.00;101456.78;5109389;28;20044;-55
2022/08/05 02:28:49;;;;;;;9.20;4.85;;;;;;;18.51;100.00;101455.38;5110234;28;20047;-54
2022/08/05 02:31:23;;;;;;;10.02;4.53;;;;;;;18.52;100.00;101455.25;5111923;28;20056;-55
2022/08/05 02:33:56;;;;;;;12.77;4.82;;;;;;;18.55;100.00;101446.13;5111981;28;20069;-62
2022/08/05 02:36:26;;;;;;;9.75;4.78;;;;;;;18.49;100.00;101433.41;5108042;28;20054;-55
2022/08/05 02:39:01;;;;;;;10.63;4.82;;;;;;;18.46;100.00;101433.66;5109800;28;20067;-53
2022/08/05 02:41:32;;;;;;;9.65;4.88;;;;;;;18.39;100.00;101420.91;5110618;28;20104;-57
2022/08/05 02:44:21;;;;;;;9.55;5.05;;;;;;;18.45;100.00;101415.97;5111651;28;20058;-61
2022/08/05 02:46:51;;;;;;;11.63;4.35;;;;;;;18.39;100.00;101420.03;5116309;28;20675;-62
2022/08/05 02:49:31;;;;;;;11.52;5.40;;;;;;;18.27;100.00;101411.34;5113166;28;20485;-61
2022/08/05 02:52:07;;;;;;;13.02;5.20;;;;;;;18.38;100.00;101410.38;5114570;28;20046;-60
2022/08/05 02:54:37;;;;;;;11.07;4.80;;;;;;;18.38;100.00;101418.38;5115151;28;20123;-56
2022/08/05 02:57:11;;;;;;;9.93;5.40;;;;;;;18.29;100.00;101412.03;5114530;28;20139;-60
2022/08/05 03:00:00;;;;;;;10.02;5.10;;;;;;;18.32;100.00;101398.44;5112505;28;20526;-61
2022/08/05 03:02:34;;;;;;;10.68;4.63;;;;;;;18.32;100.00;101398.44;5114009;28;20039;-55
2022/08/05 03:05:03;;;;;;;10.40;5.20;;;;;;;18.19;100.00;101401.38;5114979;28;20055;-55
2022/08/05 03:07:33;;;;;;;10.90;5.63;;;;;;;18.19;100.00;101401.38;5114847;28;20043;-57
2022/08/05 03:10:23;;;;;;;8.55;4.72;;;;;;;18.21;100.00;101430.50;5114967;28;20066;-55
2022/08/05 03:12:52;;;;;;;10.30;5.18;;;;;;;18.20;100.00;101436.81;5114840;28;20051;-61
2022/08/05 03:15:22;;;;;;;9.93;5.25;;;;;;;18.36;100.00;101431.78;5113077;28;20088;-54
2022/08/05 03:17:54;;;;;;;12.15;4.88;;;;;;;18.33;100.00;101420.59;5112596;28;20834;-61
2022/08/05 03:20:23;;;;;;;10.77;5.47;;;;;;;18.29;100.00;101406.72;5115060;28;20368;-62
2022/08/05 03:22:52;;;;;;;12.23;5.30;;;;;;;18.30;100.00;101419.06;5114907;28;20036;-61
2022/08/05 03:25:25;;;;;;;11.07;5.35;;;;;;;18.32;100.00;101432.22;5114716;28;20043;-54
2022/08/05 03:28:14;;;;;;;8.20;4.97;;;;;;;18.37;100.00;101422.00;5114954;28;20063;-54
2022/08/05 03:30:48;;;;;;;10.52;5.07;;;;;;;18.42;100.00;101427.78;5114839;28;20126;-54
2022/08/05 03:33:19;;;;;;;10.57;5.43;;;;;;;18.40;100.00;101425.22;5114834;28;20039;-61
2022/08/05 03:35:49;;;;;;;11.23;5.07;;;;;;;18.35;100.00;101423.94;5114768;27;20044;-60
2022/08/05 03:38:21;;;;;;;13.20;5.88;;;;;;;18.32;100.00;101419.75;5114828;28;20104;-61
2022/08/05 03:41:01;;;;;;;13.27;5.60;;;;;;;18.31;100.00;101411.88;5114500;28;20402;-62
2022/08/05 03:43:37;;;;;;;12.63;5.28;;;;;;;18.29;100.00;101400.56;5114777;28;20046;-62
2022/08/05 03:46:25;;;;;;;12.70;6.07;;;;;;;18.37;100.00;101393.56;5115031;28;20047;-62
2022/08/05 03:49:00;;;;;;;8.85;4.60;;;;;;;18.31;100.00;101386.13;5114793;28;20044;-62
2022/08/05 03:51:32;;;;;;;11.32;5.25;;;;;;;18.27;100.00;101389.19;5114366;28;20043;-54
2022/08/05 03:54:31;;;;;;;11.43;5.30;;;;;;;18.23;100.00;101386.81;5113776;28;20039;-55
2022/08/05 03:57:24;;;;;;;10.25;4.75;;;;;;;18.19;100.00;101401.38;5113828;28;20126;-57
2022/08/05 04:00:11;;;;;;;11.25;5.50;;;;;;;18.20;100.00;101395.06;5111352;28;20398;-55
2022/08/05 04:02:45;;;;;;;10.70;5.65;;;;;;;18.18;100.00;101399.69;5112908;28;20043;-61
2022/08/05 04:05:32;;;;;;;13.57;5.80;;;;;;;18.24;100.00;101420.44;5114626;28;20047;-55
2022/08/05 04:08:07;;;;;;;9.60;6.32;;;;;;;18.16;100.00;101416.75;5113236;28;20047;-52
2022/08/05 04:10:56;;;;;;;9.20;5.65;;;;;;;18.28;100.00;101415.66;5114709;28;20047;-55
2022/08/05 04:13:24;;;;;;;12.55;5.50;;;;;;;18.33;100.00;101412.63;5114578;28;20048;-61
2022/08/05 04:16:13;;;;;;;12.38;5.30;;;;;;;18.34;100.00;101411.63;5111604;28;20055;-62
2022/08/05 04:18:41;;;;;;;12.50;5.60;;;;;;;18.35;100.00;101415.97;5111785;27;20114;-60
2022/08/05 04:21:16;;;;;;;12.27;6.05;;;;;;;18.31;100.00;101407.44;5113757;28;20058;-60
2022/08/05 04:24:05;;;;;;;9.60;5.45;;;;;;;18.27;100.00;101403.34;5113937;28;20039;-61
2022/08/05 04:26:45;;;;;;;10.70;5.63;;;;;;;18.23;100.00;101391.31;5110552;28;20055;-61
2022/08/05 04:29:13;;;;;;;14.02;5.75;;;;;;;18.20;100.00;101383.56;5111683;28;20089;-61
2022/08/05 04:31:41;;;;;;;10.32;5.60;;;;;;;18.12;100.00;101378.94;5113474;28;20179;-55
2022/08/05 04:34:10;;;;;;;11.93;5.55;;;;;;;18.06;100.00;101380.34;5111938;28;20067;-60
2022/08/05 04:36:59;;;;;;;11.80;5.95;;;;;;;18.01;100.00;101392.34;5113603;28;20059;-55
2022/08/05 04:39:30;;;;;;;13.90;5.83;;;;;;;18.04;100.00;101392.91;5113743;28;20146;-55
2022/08/05 04:41:59;;;;;;;11.35;5.70;;;;;;;18.08;100.00;101391.66;5113849;28;20047;-55
2022/08/05 04:44:30;;;;;;;11.95;5.68;;;;;;;18.15;100.00;101399.97;5113533;28;20036;-53
2022/08/05 04:46:58;;;;;;;11.10;5.88;;;;;;;18.09;100.00;101416.44;5113350;27;20065;-53
2022/08/05 04:49:36;;;;;;;11.52;6.30;;;;;;;18.15;100.00;101431.06;5113254;28;20056;-60
2022/08/05 04:52:07;;;;;;;10.82;6.00;;;;;;;18.19;100.00;101438.63;5112555;28;20051;-55
2022/08/05 04:54:35;;;;;;;10.30;5.80;;;;;;;18.22;100.00;101442.84;5074559;28;20557;-51
2022/08/05 04:57:04;;;;;;;9.52;5.70;;;;;;;18.24;100.00;101449.72;5070307;28;20166;-61
2022/08/05 04:59:32;;;;;;;12.05;5.20;;;;;;;18.16;100.00;101444.22;5071207;28;20071;-54
2022/08/05 05:02:07;;;;;;;11.07;5.72;;;;;;;18.17;100.00;101450.38;5072262;28;20048;-53
2022/08/05 05:04:56;;;;;;;8.88;5.10;;;;;;;18.21;100.00;101446.47;5072289;28;20498;-55
2022/08/05 05:07:32;;;;;;;9.70;5.18;;;;;;;18.33;100.00;101444.56;5071726;28;20040;-61
2022/08/05 05:10:05;;;;;;;10.82;4.90;;;;;;;18.34;100.00;101446.25;5072054;28;20075;-55
2022/08/05 05:12:33;;;;;;;12.27;5.47;;;;;;;18.31;100.00;101457.16;5071577;28;20369;-53
2022/08/05 05:15:05;;;;;;;10.93;5.25;;;;;;;18.37;100.00;101456.63;5069990;28;20041;-61
2022/08/05 05:17:38;;;;;;;10.65;5.57;;;;;;;18.40;100.00;101462.50;5071026;28;20049;-61
2022/08/05 05:20:24;;;;;;;8.25;4.82;;;;;;;18.29;100.00;101457.28;5072370;28;20040;-53
2022/08/05 05:22:57;;;;;;;8.60;4.43;;;;;;;18.35;100.00;101451.44;5068970;28;20864;-56
2022/08/05 05:25:26;;;;;;;11.23;5.13;;;;;;;18.32;100.00;101449.03;5070504;28;20048;-61
2022/08/05 05:28:07;;;;;;;15.50;4.75;;;;;;;18.34;100.00;101452.41;5071096;28;20072;-61
2022/08/05 05:30:36;;;;;;;11.93;4.88;;;;;;;18.32;100.00;101449.03;5072349;28;20040;-55
2022/08/05 05:33:06;;;;;;;10.35;4.50;;;;;;;18.44;100.00;101448.94;5069672;28;20053;-57
2022/08/05 05:35:44;;;;;;;10.38;4.28;;;;;;;18.38;100.00;101448.50;5069873;28;20389;-61
2022/08/05 05:41:01;;;;;;;9.55;3.92;;;;;;;18.59;100.00;101455.53;5072301;28;20539;-61
2022/08/05 05:43:29;;;;;;;10.23;4.53;;;;;;;18.62;100.00;101452.59;5071945;28;20122;-55
2022/08/05 05:46:17;;;;;;;10.05;4.22;;;;;;;18.59;100.00;101452.88;5072071;28;20114;-61
2022/08/05 05:48:48;;;;;;;9.27;4.18;;;;;;;18.57;100.00;101452.19;5072395;28;20059;-60
2022/08/05 05:51:22;;;;;;;9.25;4.45;;;;;;;18.60;100.00;101451.91;5072208;28;20079;-61
2022/08/05 05:53:53;;;;;;;9.65;4.80;;;;;;;18.58;100.00;101448.53;5071992;28;20040;-61
2022/08/05 05:56:30;;;;;;;8.73;4.45;;;;;;;18.52;100.00;101438.44;5072223;28;20040;-54
2022/08/05 05:59:02;;;;;;;10.88;4.38;;;;;;;18.44;100.00;101443.59;5070955;28;20399;-56
2022/08/05 06:01:32;;;;;;;11.45;4.85;;;;;;;18.39;100.00;101444.84;5069206;28;20433;-61
2022/08/05 06:04:07;;;;;;;7.82;3.95;;;;;;;18.44;100.00;101448.94;5071278;28;20057;-61
2022/08/05 06:06:41;;;;;;;12.30;3.92;;;;;;;18.41;100.00;101458.03;5072377;28;20052;-60
2022/08/05 06:09:11;;;;;;;8.50;4.07;;;;;;;18.44;100.00;101451.59;5071910;28;20544;-55
2022/08/05 06:11:54;;;;;;;11.07;4.00;;;;;;;18.42;100.00;101465.88;5071135;28;20064;-58
2022/08/05 06:14:30;;;;;;;10.35;3.90;;;;;;;18.45;100.00;101467.44;5071296;28;20090;-54
2022/08/05 06:16:59;;;;;;;6.65;3.63;;;;;;;18.49;100.00;101468.84;5071588;28;20044;-61
2022/08/05 06:19:47;;;;;;;8.82;3.58;;;;;;;18.53;100.00;101482.75;5074342;28;20048;-61
2022/08/05 06:22:28;;;;;;;10.85;4.15;;;;;;;18.58;100.00;101484.00;5072755;28;20052;-57
2022/08/05 06:24:57;;;;;;;8.80;3.40;;;;;;;18.63;100.00;101470.25;5072239;28;20083;-62
2022/08/05 06:27:25;;;;;;;9.90;3.50;;;;;;;18.52;100.00;101473.88;5074594;28;20056;-56
2022/08/05 06:30:15;;;;;;;10.13;4.18;;;;;;;18.58;100.00;101468.03;5073212;28;20536;-56
2022/08/05 06:32:48;;;;;;;9.93;3.70;;;;;;;18.66;100.00;101483.31;5073950;28;20064;-55
2022/08/05 06:35:18;;;;;;;8.55;3.35;;;;;;;18.60;100.00;101494.53;5075223;28;20090;-62
2022/08/05 06:38:06;;;;;;;7.13;3.47;;;;;;;18.66;100.00;101493.13;5075303;28;20044;-55
2022/08/05 06:40:40;;;;;;;10.55;4.22;;;;;;;18.65;100.00;101486.97;5075303;28;20360;-62
2022/08/05 06:43:11;;;;;;;8.40;2.97;;;;;;;18.75;100.00;101484.31;5073577;28;20063;-56
2022/08/05 06:45:59;;;;;;;10.18;3.58;;;;;;;18.67;100.00;101490.31;5072611;28;20058;-56
2022/08/05 06:48:33;;;;;;;6.53;2.70;;;;;;;18.74;100.00;101483.44;5075343;28;20182;-62
2022/08/05 06:51:21;;;;;;;9.20;3.40;;;;;;;18.83;100.00;101486.25;5075149;28;20048;-61
2022/08/05 06:53:58;;;;;;;10.23;3.35;;;;;;;18.77;100.00;101485.00;5072714;28;20045;-57
2022/08/05 06:56:28;;;;;;;9.10;3.60;;;;;;;18.88;100.00;101498.25;5070971;28;20036;-62
2022/08/05 06:59:00;;;;;;;9.18;3.33;;;;;;;18.87;100.00;101493.00;5075012;28;20453;-57
2022/08/05 07:01:28;;;;;;;8.05;3.20;;;;;;;18.88;100.00;101492.06;5075091;28;20377;-62
2022/08/05 07:04:01;;;;;;;8.85;2.80;;;;;;;18.89;100.00;101493.75;5074723;28;20044;-62
2022/08/05 07:06:30;;;;;;;6.97;2.60;;;;;;;18.95;100.00;101503.00;5074942;28;20044;-56
2022/08/05 07:08:59;;;;;;;7.50;2.90;;;;;;;18.97;100.00;101504.56;5074782;28;20047;-61
2022/08/05 07:11:33;;;;;;;10.52;3.08;;;;;;;18.99;100.00;101509.75;5074619;28;20127;-56
2022/08/05 07:17:01;;;;;;;7.13;2.90;;;;;;;19.24;100.00;101511.03;5073212;28;20052;-61
2022/08/05 07:19:49;;;;;;;6.28;2.60;;;;;;;19.30;100.00;101521.13;5072254;28;20052;-55
2022/08/05 07:22:37;;;;;;;8.52;2.95;;;;;;;19.33;100.00;101517.34;5072311;28;20041;-61
2022/08/05 07:25:07;;;;;;;7.05;2.47;;;;;;;19.39;100.00;101528.28;5072171;28;20048;-56
2022/08/05 07:27:56;;;;;;;6.85;2.60;;;;;;;19.43;100.00;101527.00;5074005;28;20094;-55
2022/08/05 07:30:36;;;;;;;7.30;2.58;;;;;;;19.49;100.00;101536.28;5074167;28;20484;-55
2022/08/05 07:33:08;;;;;;;8.23;2.72;;;;;;;19.45;100.00;101542.88;5074339;28;20053;-61
2022/08/05 07:35:43;;;;;;;9.07;2.70;;;;;;;19.53;100.00;101547.50;5074124;28;20074;-61
2022/08/05 07:38:32;;;;;;;11.10;2.72;;;;;;;19.56;100.00;101549.88;5074286;28;20041;-53
2022/08/05 07:41:12;;;;;;;9.32;2.90;;;;;;;19.55;100.00;101554.38;5074157;28;20052;-57
2022/08/05 07:44:02;;;;;;;7.85;2.88;;;;;;;19.79;100.00;101560.25;5073970;28;20461;-61
2022/08/05 07:46:31;;;;;;;6.93;2.45;;;;;;;19.83;100.00;101559.84;5073872;28;20098;-61
2022/08/05 07:49:02;;;;;;;6.50;2.30;;;;;;;19.89;100.00;101555.75;5073968;28;20051;-62
2022/08/05 07:51:36;;;;;;;5.97;2.10;;;;;;;19.93;100.00;101567.81;5073973;28;20434;-56
2022/08/05 07:54:20;;;;;;;9.82;2.60;;;;;;;20.06;100.00;101559.53;5071919;28;20044;-57
2022/08/05 07:56:54;;;;;;;6.10;2.20;;;;;;;20.00;100.00;101552.94;5071081;28;20384;-57
2022/08/05 07:59:43;;;;;;;6.82;2.30;;;;;;;20.29;100.00;101554.66;5073448;28;20384;-56
2022/08/05 08:02:15;;;;;;;7.95;2.22;;;;;;;20.37;99.84;101554.78;5073485;28;20059;-61
2022/08/05 08:04:46;;;;;;;7.32;2.30;;;;;;;20.45;100.00;101551.38;5071871;28;20562;-56
2022/08/05 08:07:16;;;;;;;5.80;1.85;;;;;;;20.38;92.62;101560.94;5069838;28;20040;-56
2022/08/05 08:09:51;;;;;;;4.90;2.00;;;;;;;20.35;93.44;101564.75;5073440;28;20044;-62
2022/08/05 08:12:22;;;;;;;4.07;1.60;;;;;;;20.27;93.02;101568.16;5073517;28;20510;-57
2022/08/05 08:15:10;;;;;;;5.03;1.83;;;;;;;20.38;94.80;101555.59;5072117;28;20052;-56
2022/08/05 08:17:44;;;;;;;8.23;2.03;;;;;;;20.58;94.64;101561.69;5073200;28;20052;-61
2022/08/05 08:20:20;;;;;;;6.45;1.83;;;;;;;20.73;94.37;101552.22;5069335;28;20147;-56
2022/08/05 08:23:08;;;;;;;7.15;1.90;;;;;;;20.77;91.12;101552.78;5071588;28;20037;-60
2022/08/05 08:25:56;;;;;;;9.10;1.70;;;;;;;21.23;91.06;101555.41;5069570;28;20048;-56
2022/08/05 08:28:29;;;;;;;5.85;1.20;;;;;;;21.50;88.08;101554.50;5069370;28;20056;-56
2022/08/05 08:31:06;;;;;;;3.92;1.20;;;;;;;21.47;82.33;101559.28;5073132;28;20532;-61
2022/08/05 08:33:34;;;;;;;5.88;1.75;;;;;;;21.60;83.66;101565.13;5072694;28;20090;-55
2022/08/05 08:36:06;;;;;;;4.03;1.33;;;;;;;21.94;82.63;101569.72;5072512;28;20052;-56
2022/08/05 08:38:54;;;;;;;5.40;1.45;;;;;;;22.11;78.50;101576.88;5069126;28;20044;-56
2022/08/05 08:41:26;;;;;;;6.40;1.48;;;;;;;22.15;79.05;101580.06;5069957;28;20491;-56
2022/08/05 08:44:15;;;;;;;7.47;1.35;;;;;;;22.25;77.75;101580.78;5070786;28;20056;-56
2022/08/05 08:47:06;;;;;;;1.92;0.90;;;;;;;22.35;74.66;101583.38;5069986;28;20090;-63
2022/08/05 08:49:56;;;;;;;3.38;1.05;;;;;;;22.37;75.86;101586.72;5071810;28;20048;-63
2022/08/05 08:52:49;;;;;;;3.60;1.10;;;;;;;22.42;72.28;101584.41;5072185;28;20490;-57
2022/08/05 08:55:20;;;;;;;3.08;1.20;;;;;;;22.51;75.74;101587.13;5069026;28;20457;-57
2022/08/05 08:58:10;;;;;;;2.75;0.98;;;;;;;22.40;71.02;101585.56;5070339;28;20048;-62
2022/08/05 09:00:41;;;;;;;5.18;1.27;;;;;;;22.65;72.70;101591.06;5071989;28;20501;-58
2022/08/05 09:03:11;;;;;;;4.00;1.10;;;;;;;22.55;70.52;101592.03;5070192;28;20052;-57
2022/08/05 09:05:47;;;;;;;2.78;1.15;;;;;;;22.64;72.90;101598.25;5069879;28;20048;-62
2022/08/05 09:08:35;;;;;;;3.25;0.95;;;;;;;22.62;71.84;101602.94;5072465;28;20052;-57
2022/08/05 09:11:08;;;;;;;5.43;1.50;;;;;;;22.46;70.05;101614.41;5072738;28;20384;-62
2022/08/05 09:13:41;;;;;;;3.88;1.08;;;;;;;22.45;71.68;101616.28;5072224;28;20045;-62
2022/08/05 09:16:30;;;;;;;2.60;1.10;;;;;;;22.48;72.13;101619.63;5071981;28;20500;-57
2022/08/05 09:18:59;;;;;;;3.58;1.30;;;;;;;22.59;71.20;101612.16;5071792;28;20349;-58
2022/08/05 09:21:33;;;;;;;3.47;1.30;;;;;;;22.41;72.81;101620.25;5070791;28;20074;-57
2022/08/05 09:24:22;;;;;;;6.05;1.23;;;;;;;22.34;69.54;101634.41;5071722;28;20434;-62
2022/08/05 09:26:55;;;;;;;5.22;1.10;;;;;;;22.44;67.78;101641.38;5070540;28;20079;-62
2022/08/05 09:29:38;;;;;;;4.07;0.80;;;;;;;22.40;65.75;101636.47;5071740;28;20122;-61
2022/08/05 09:32:15;;;;;;;3.00;0.80;;;;;;;22.27;65.36;101635.03;5071775;28;20537;-62
2022/08/05 09:35:12;;;;;;;3.20;0.80;;;;;;;22.57;66.76;101629.38;5071352;28;20044;-61
2022/08/05 09:37:57;;;;;;;2.28;0.80;;;;;;;22.66;63.28;101628.44;5070302;28;20479;-62
2022/08/05 09:40:44;;;;;;;5.15;0.85;;;;;;;22.76;63.83;101628.28;5069108;28;20458;-57
2022/08/05 09:43:29;;;;;;;2.28;0.70;;;;;;;22.90;61.78;101624.97;5071154;28;20037;-62
2022/08/05 09:46:24;;;;;;;3.25;0.80;;;;;;;22.90;61.37;101629.50;5069712;28;20044;-62
2022/08/05 09:48:56;;;;;;;2.83;0.65;;;;;;;23.04;61.70;101633.41;5069674;28;20048;-57
2022/08/05 09:51:47;;;;;;;3.22;0.90;;;;;;;23.17;63.25;101638.34;5071655;28;20068;-62
2022/08/05 09:54:17;;;;;;;2.72;0.80;;;;;;;23.27;60.37;101634.53;5075971;28;20040;-62
2022/08/05 09:56:56;;;;;;;2.50;0.70;;;;;;;23.19;58.75;101637.19;5073860;28;20048;-62
2022/08/05 09:59:29;;;;;;;2.88;1.00;;;;;;;23.68;60.18;101630.19;5073347;28;20049;-57
2022/08/05 10:02:05;;;;;;;2.97;1.10;;;;;;;23.85;56.14;101631.03;5074983;28;20052;-57
2022/08/05 10:04:39;;;;;;;2.00;0.70;;;;;;;24.13;56.54;101636.88;5075040;28;20044;-57
2022/08/05 10:07:09;;;;;;;1.83;0.75;;;;;;;24.20;54.38;101629.84;5072111;28;20050;-62
2022/08/05 10:09:58;;;;;;;2.30;0.77;;;;;;;24.46;50.90;101640.34;5074174;28;20044;-60
2022/08/05 10:12:46;;;;;;;4.00;0.80;;;;;;;24.69;51.21;101645.03;5075756;28;20045;-57
2022/08/05 10:15:19;;;;;;;1.90;0.70;;;;;;;24.65;52.67;101646.38;5075831;28;20101;-55
2022/08/05 10:18:07;;;;;;;2.35;0.80;;;;;;;25.41;54.01;101641.28;5075538;28;20150;-57
2022/08/05 10:20:38;;;;;;;3.00;0.65;;;;;;;25.45;47.44;101642.59;5073094;28;20048;-57
2022/08/05 10:23:10;;;;;;;2.50;0.80;;;;;;;25.67;48.24;101656.22;5072380;28;20492;-61
2022/08/05 10:26:01;;;;;;;1.65;0.50;;;;;;;25.70;45.56;101647.81;5075429;28;20449;-61
2022/08/05 10:28:30;;;;;;;4.00;0.80;;;;;;;25.50;41.85;101649.28;5075256;28;20067;-57
2022/08/05 10:31:03;;;;;;;1.42;0.50;;;;;;;25.50;41.72;101643.91;5075318;28;20049;-62
2022/08/05 10:33:52;;;;;;;1.17;0.50;;;;;;;25.46;42.80;101649.66;5075544;28;20052;-61
2022/08/05 10:36:23;;;;;;;2.47;0.70;;;;;;;25.44;43.22;101662.47;5074762;28;20090;-54
2022/08/05 10:39:02;;;;;;;2.58;0.52;;;;;;;25.38;44.45;101665.88;5072735;28;20037;-61
2022/08/05 10:41:43;;;;;;;2.58;0.60;;;;;;;25.01;41.50;101670.09;5074431;28;20040;-55
2022/08/05 10:44:18;;;;;;;2.78;0.68;;;;;;;24.64;42.10;101672.41;5075291;28;20052;-60
2022/08/05 10:46:52;;;;;;;3.55;0.68;;;;;;;24.87;42.43;101673.50;5075656;28;20051;-56
2022/08/05 10:49:28;;;;;;;3.22;0.70;;;;;;;24.97;43.67;101672.28;5072043;28;20399;-55
2022/08/05 10:52:01;;;;;;;2.25;0.70;;;;;;;25.22;42.78;101671.31;5071523;28;20491;-56
2022/08/05 10:54:48;;;;;;;2.73;0.63;;;;;;;25.28;42.95;101676.00;5073846;28;20515;-61
2022/08/05 10:57:27;;;;;;;2.80;0.70;;;;;;;25.40;43.60;101676.44;5071633;28;20465;-62
2022/08/05 11:00:14;;;;;;;0.80;0.60;;;;;;;25.31;41.43;101683.72;5073947;28;20055;-57
2022/08/05 11:03:11;;;;;;;4.35;1.70;;;;;;;25.81;41.01;101677.00;5074853;28;20102;-62
2022/08/05 11:06:05;;;;;;;3.70;1.40;;;;;;;26.27;39.98;101684.22;5073415;28;20122;-62
2022/08/05 11:08:35;;;;;;;4.15;0.70;;;;;;;25.97;37.79;101680.56;5074777;28;20043;-56
2022/08/05 11:11:36;;;;;;;1.70;0.52;;;;;;;26.22;39.12;101688.44;5072473;28;20053;-60
2022/08/05 11:14:28;;;;;;;4.20;0.68;;;;;;;26.57;36.34;101683.38;5105588;28;20052;-56
2022/08/05 11:17:31;;;;;;;3.88;0.82;;;;;;;27.07;37.51;101694.44;5073630;28;20086;-64
2022/08/05 11:20:42;;;;;;;1.33;0.57;;;;;;;26.34;35.66;101711.25;5073081;28;20041;-58
2022/08/05 11:23:42;;;;;;;4.53;0.70;;;;;;;26.23;36.43;101706.31;5070827;28;20048;-62
2022/08/05 11:26:31;;;;;;;3.50;0.77;;;;;;;26.22;36.41;101704.63;5105422;28;20491;-63
2022/08/05 11:29:09;;;;;;;2.10;0.60;;;;;;;26.00;36.07;101709.88;5071822;28;20102;-56
2022/08/05 11:31:43;;;;;;;3.40;0.80;;;;;;;26.14;37.04;101703.69;5073939;28;20052;-63
2022/08/05 11:34:41;;;;;;;4.65;1.30;;;;;;;26.27;33.73;101704.91;5074763;28;20048;-60
2022/08/05 11:37:59;;;;;;;1.77;0.70;;;;;;;26.36;33.38;101720.00;5074316;28;20048;-55
2022/08/05 11:41:05;;;;;;;2.03;0.63;;;;;;;26.02;32.44;101715.94;5074995;28;20040;-56
2022/08/05 11:43:56;;;;;;;1.10;0.50;;;;;;;25.81;33.89;101716.59;5074812;28;20041;-61
2022/08/05 11:46:38;;;;;;;2.10;0.50;;;;;;;25.63;35.34;101719.56;5075483;28;20052;-60
2022/08/05 11:49:26;;;;;;;2.20;0.60;;;;;;;25.80;35.69;101718.41;5075666;28;20044;-60
2022/08/05 11:51:55;;;;;;;6.65;2.10;;;;;;;26.01;34.32;101726.84;5075152;28;20045;-57
2022/08/05 11:54:26;;;;;;;5.72;1.10;;;;;;;26.02;34.53;101728.53;5075322;28;20044;-58
2022/08/05 11:57:03;;;;;;;2.70;0.60;;;;;;;25.75;32.82;101742.34;5074438;28;20051;-57
2022/08/05 11:59:40;;;;;;;2.20;0.60;;;;;;;24.93;32.57;101745.44;5074189;28;20048;-63
2022/08/05 12:02:25;;;;;;;3.33;0.80;;;;;;;24.84;33.53;101746.47;5073921;28;20139;-57
2022/08/05 12:05:01;;;;;;;2.63;0.55;;;;;;;25.09;34.75;101753.47;5071527;28;20061;-63
2022/08/05 12:07:37;;;;;;;1.98;0.55;;;;;;;25.19;35.47;101757.81;5070786;28;20044;-58
2022/08/05 12:10:27;;;;;;;3.75;0.80;;;;;;;25.45;34.64;101755.66;5073708;28;20041;-63
2022/08/05 12:13:12;;;;;;;1.92;0.60;;;;;;;25.64;35.04;101761.63;5070731;28;20044;-57